Flight Track Log - Related Links

Times and Time Zones

All times are in EDT time to prevent confusion due to time zone crossing. See the DAL1214 flight status page for this flight to view local times or setup timezone preferences in your user account.

Time Position Orientation Groundspeed Altitude Reporting Facility
EDT Latitude Longitude Course Direction KTS MPH feet Rate Location/Type
Thu 08:10:32 PM 39.3333 -94.7167 38° Northeast 154 177 2,900  Level Kansas City TRACON
Thu 08:11:29 PM 39.3639 -94.6756 46° Northeast 195 224 4,900 2,773 Climbing Kansas City Center
Thu 08:12:31 PM 39.4172 -94.6083 44° Northeast 236 272 8,400 2,488 Climbing Kansas City Center
Thu 08:13:00 PM 39.6046 -94.3199 41° Northeast  Level FlightAware Approximate
Thu 08:13:32 PM 39.4669 -94.5389 47° Northeast 280 322 10,000  Level Kansas City Center
Thu 08:14:00 PM 39.6939 -94.2119 47° Northeast  Level FlightAware Approximate
Thu 08:14:34 PM 39.5372 -94.4436 46° Northeast 334 384 11,700  Level Kansas City Center
Thu 08:15:00 PM 39.7815 -94.1019 38° Northeast  Level FlightAware Approximate
Thu 08:15:36 PM 39.6064 -94.3508 46° Northeast 371 427 13,700  Level Kansas City Center
Thu 08:16:37 PM 39.6878 -94.2392 47° Northeast 384 442 16,300 2,098 Climbing Kansas City Center
Thu 08:17:39 PM 39.7453 -94.1267 56° Northeast 391 450 18,000 1,548 Climbing Kansas City Center
Thu 08:18:41 PM 39.8125 -93.9972 56° Northeast 410 472 19,500 1,756 Climbing Kansas City Center
Thu 08:19:42 PM 39.8808 -93.8597 57° Northeast 419 482 21,600 1,707 Climbing Kansas City Center
Thu 08:20:44 PM 39.9381 -93.7358 59° Northeast 414 476 23,000 1,258 Climbing Kansas City Center
Thu 08:21:46 PM 39.9817 -93.5950 68° East 420 483 24,200 1,210 Climbing Kansas City Center
Thu 08:22:48 PM 40.0267 -93.4514 68° East 430 495 25,500 927 Climbing Kansas City Center
Thu 08:23:49 PM 40.0753 -93.3033 67° East 446 513 26,100 634 Climbing Kansas City Center
Thu 08:24:51 PM 40.1269 -93.1464 67° East 468 539 26,800 1,161 Climbing Kansas City Center
Thu 08:25:53 PM 40.1808 -92.9739 68° East 479 551 28,500 1,645 Climbing Kansas City Center
Thu 08:26:55 PM 40.2394 -92.7939 67° East 482 555 30,200 1,210 Climbing Kansas City Center
Thu 08:27:57 PM 40.2889 -92.6403 67° East 479 551 31,000 829 Climbing Kansas City Center
Thu 08:28:58 PM 40.3383 -92.4653 70° East 483 556 31,900 976 Climbing Kansas City Center
Thu 08:30:00 PM 40.3986 -92.2900 66° East 488 562 33,000 532 Climbing Kansas City Center
Thu 08:31:02 PM 40.4447 -92.1283 69° East 479 551 33,000  Level Kansas City Center
Thu 08:32:03 PM 40.4733 -91.9608 77° East 472 543 33,000 390 Level Kansas City Center
Thu 08:33:05 PM 40.5033 -91.7939 77° East 472 543 33,800 774 Climbing Kansas City Center
Thu 08:34:07 PM 40.5456 -91.6317 71° East 472 543 34,600 610 Climbing Kansas City Center
Thu 08:35:03 PM 40.5994 -91.4733 66° East 476 548 35,000 203 Climbing Chicago Center
Thu 08:36:05 PM 40.6508 -91.3111 67° East 482 555 35,000  Level Chicago Center
Thu 08:37:07 PM 40.7100 -91.1228 67° East 482 555 35,000  Level Chicago Center
Thu 08:38:09 PM 40.7608 -90.9594 68° East 480 552 35,000  Level Chicago Center
Thu 08:39:11 PM 40.8114 -90.7978 68° East 478 550 35,000  Level Chicago Center
Thu 08:40:13 PM 40.8619 -90.6328 68° East 480 552 35,000  Level Chicago Center
Thu 08:41:15 PM 40.9119 -90.4700 68° East 478 550 35,000  Level Chicago Center
Thu 08:42:17 PM 40.9639 -90.3039 67° East 486 559 35,000  Level Chicago Center
Thu 08:43:19 PM 41.0153 -90.1383 68° East 482 555 35,000  Level Chicago Center
Thu 08:44:21 PM 41.0758 -89.9383 68° East 483 556 35,000  Level Chicago Center
Thu 08:45:24 PM 41.1258 -89.7717 68° East 483 556 35,000  Level Chicago Center
Thu 08:46:26 PM 41.1742 -89.6031 69° East 486 559 35,000  Level Chicago Center
Thu 08:47:28 PM 41.2236 -89.4369 68° East 485 558 35,000  Level Chicago Center
Thu 08:48:30 PM 41.2722 -89.2722 69° East 478 550 35,000  Level Chicago Center
Thu 08:49:32 PM 41.3167 -89.1117 70° East 474 545 35,000  Level Chicago Center
Thu 08:50:34 PM 41.3744 -88.9122 69° East 480 552 35,000  Level Chicago Center
Thu 08:51:36 PM 41.4231 -88.7461 69° East 484 557 35,000  Level Chicago Center
Thu 08:52:38 PM 41.4689 -88.5786 70° East 482 555 35,000  Level Chicago Center
Thu 08:53:40 PM 41.5167 -88.4122 69° East 479 551 35,000  Level Chicago Center
Thu 08:54:42 PM 41.5550 -88.2417 73° East 474 545 35,000  Level Chicago Center
Thu 08:55:44 PM 41.5772 -88.0636 80° East 475 547 35,000  Level Chicago Center
Thu 08:56:46 PM 41.5972 -87.8867 81° East 475 547 35,000 -919 Level Chicago Center
Thu 08:57:48 PM 41.6225 -87.6772 81° East 476 548 33,100 -968 Descending Chicago Center
Thu 08:58:50 PM 41.6417 -87.5036 82° East 474 545 33,000 -48 Descending Chicago Center
Thu 08:59:52 PM 41.6617 -87.3283 81° East 478 550 33,000  Level Chicago Center
Thu 09:00:54 PM 41.6875 -87.1589 78° East 470 541 33,000 -48 Level Chicago Center
Thu 09:01:56 PM 41.7400 -86.9967 67° East 475 547 32,900 -726 Descending Chicago Center
Thu 09:02:58 PM 41.7911 -86.8319 67° East 481 554 31,500 -1,258 Descending Chicago Center
Thu 09:04:00 PM 41.8489 -86.6442 68° East 485 558 30,300 -968 Descending Chicago Center
Thu 09:05:02 PM 41.8936 -86.4731 71° East 487 560 29,500 -823 Descending Chicago Center
Thu 09:06:04 PM 41.9128 -86.2953 82° East 483 556 28,600 -919 Descending Chicago Center
Thu 09:07:06 PM 41.9317 -86.1178 82° East 482 555 27,600 -919 Descending Chicago Center
Thu 09:08:08 PM 41.9503 -85.9386 82° East 484 557 26,700 -823 Descending Chicago Center
Thu 09:09:10 PM 41.9717 -85.7228 82° East 483 556 25,900 -774 Descending Chicago Center
Thu 09:10:12 PM 41.9886 -85.5472 83° East 474 545 25,100 -1,306 Descending Chicago Center
Thu 09:11:14 PM 42.0044 -85.3942 82° East 467 537 23,200 -2,143 Descending Chicago Center
Thu 09:11:36 PM 42.0147 -85.3125 80° East 455 524 22,100 -2,780 Descending Cleveland Center
Thu 09:12:36 PM 42.0292 -85.1569 83° East 434 499 19,400 -1,550 Descending Cleveland Center
Thu 09:13:36 PM 42.0417 -85.0014 84° East 422 486 19,000 -400 Descending Cleveland Center
Thu 09:14:36 PM 42.0497 -84.8425 86° East 422 486 18,600 -800 Descending Cleveland Center
Thu 09:15:36 PM 42.0133 -84.6975 109° East 406 467 17,400 -1,100 Descending Cleveland Center
Thu 09:16:36 PM 41.9825 -84.5669 108° East 406 467 16,400 -1,109 Descending Cleveland Center
Thu 09:17:35 PM 41.9394 -84.4244 112° Southeast 406 467 15,200 -1,310 Descending Cleveland Center
Thu 09:18:03 PM 41.9167 -84.3533 113° Southeast 395 455 14,500 -1,358 Descending Cleveland Center
Thu 09:18:28 PM 41.9000 -84.2911 110° East 388 447 14,000 -1,032 Descending Cleveland Center
Thu 09:19:36 PM 41.8606 -84.1578 112° Southeast 383 441 12,900 -992 Descending Cleveland Center
Thu 09:20:29 PM 41.8394 -84.0256 102° East 376 433 12,000 -700 Descending Cleveland Center
Thu 09:21:36 PM 41.8600 -83.8928 78° East 356 410 11,500 -898 Descending Cleveland Center
Thu 09:22:36 PM 41.8719 -83.7678 83° East 344 396 10,100 -850 Descending Cleveland Center
Thu 09:23:36 PM 41.8856 -83.6542 81° East 326 375 9,800 -1,200 Descending Cleveland Center
Thu 09:24:36 PM 41.9008 -83.5433 79° East 301 346 7,700 -1,900 Descending Cleveland Center
Thu 09:25:36 PM 41.9725 -83.5186 14° North 218 251 6,000 -1,513 Descending Cleveland Center
Thu 09:26:35 PM 42.0394 -83.5050 North 225 259 4,700 -1,322 Descending Cleveland Center

Login

Don't have an account? Register now (free) for customized features, flight alerts, and more!